createdAt,value
2019-04-30T00:00:38.326Z,101853.98
2019-04-30T00:01:55.748Z,101846.05
2019-04-30T00:03:06.848Z,101847.39
2019-04-30T00:04:16.162Z,101848.73
2019-04-30T00:05:19.148Z,101848.38
2019-04-30T00:06:21.965Z,101849.88
2019-04-30T00:07:24.860Z,101840.75
2019-04-30T00:08:30.205Z,101840.05
2019-04-30T00:09:30.456Z,101840.52
2019-04-30T00:10:36.875Z,101840.52
2019-04-30T00:11:36.258Z,101834.80
2019-04-30T00:12:39.480Z,101831.75
2019-04-30T00:13:41.131Z,101831.62
2019-04-30T00:14:42.571Z,101825.03
2019-04-30T00:15:45.225Z,101821.83
2019-04-30T00:16:47.452Z,101819.15
2019-04-30T00:17:52.901Z,101820.01
2019-04-30T00:18:58.217Z,101815.63
2019-04-30T00:19:59.695Z,101809.27
2019-04-30T00:20:58.998Z,101811.95
2019-04-30T00:22:00.693Z,101810.61
2019-04-30T00:23:02.125Z,101811.08
2019-04-30T00:24:08.692Z,101812.42
2019-04-30T00:25:07.349Z,101808.91
2019-04-30T00:26:10.462Z,101804.75
2019-04-30T00:27:12.038Z,101806.09
2019-04-30T00:28:15.145Z,101806.09
2019-04-30T00:29:26.922Z,101800.72
2019-04-30T00:30:22.961Z,101804.24
2019-04-30T00:31:27.432Z,101798.39
2019-04-30T00:32:27.988Z,101802.89
2019-04-30T00:33:29.602Z,101804.59
2019-04-30T00:34:35.260Z,101806.45
2019-04-30T00:35:35.522Z,101807.28
2019-04-30T00:36:38.102Z,101811.67
2019-04-30T00:37:39.508Z,101809.84
2019-04-30T00:38:40.883Z,101807.16
2019-04-30T00:39:44.312Z,101811.55
2019-04-30T00:40:45.737Z,101809.69
2019-04-30T00:41:47.591Z,101809.56
2019-04-30T00:42:49.188Z,101805.02
2019-04-30T00:43:50.889Z,101813.95
2019-04-30T00:44:52.324Z,101799.30
2019-04-30T00:45:55.126Z,101808.58
2019-04-30T00:47:00.696Z,101805.73
2019-04-30T00:48:00.004Z,101812.09
2019-04-30T00:49:09.211Z,101807.08
2019-04-30T00:50:05.283Z,101809.77
2019-04-30T00:51:14.100Z,101807.08
2019-04-30T00:52:10.100Z,101809.28
2019-04-30T00:53:12.631Z,101811.46
2019-04-30T00:54:15.279Z,101811.11
2019-04-30T00:55:18.112Z,101808.42
2019-04-30T00:56:19.879Z,101812.33
2019-04-30T00:57:22.802Z,101808.77
2019-04-30T00:58:29.886Z,101801.22
2019-04-30T00:59:27.687Z,101807.43
2019-04-30T01:00:31.289Z,101804.39
2019-04-30T01:01:52.305Z,101800.36
2019-04-30T01:02:55.645Z,101801.34
2019-04-30T01:04:05.120Z,101797.39
2019-04-30T01:05:20.587Z,101798.38
2019-04-30T01:06:24.674Z,101804.39
2019-04-30T01:07:26.545Z,101800.23
2019-04-30T01:08:28.735Z,101804.03
2019-04-30T01:09:30.468Z,101801.98
2019-04-30T01:10:32.116Z,101805.66
2019-04-30T01:11:35.451Z,101801.78
2019-04-30T01:12:43.852Z,101803.61
2019-04-30T01:13:45.614Z,101797.40
2019-04-30T01:14:43.986Z,101798.39
2019-04-30T01:15:49.040Z,101792.50
2019-04-30T01:16:49.365Z,101796.69
2019-04-30T01:17:53.683Z,101793.49
2019-04-30T01:18:55.368Z,101794.00
2019-04-30T01:19:56.859Z,101793.49
2019-04-30T01:20:58.660Z,101785.08
2019-04-30T01:22:00.229Z,101794.00
2019-04-30T01:23:03.143Z,101786.06
2019-04-30T01:24:04.997Z,101784.72
2019-04-30T01:25:12.158Z,101779.70
2019-04-30T01:26:10.474Z,101784.72
2019-04-30T01:27:11.964Z,101783.61
2019-04-30T01:28:16.384Z,101784.09
2019-04-30T01:29:19.277Z,101787.13
2019-04-30T01:30:22.737Z,101782.62
2019-04-30T01:31:24.492Z,101785.78
2019-04-30T01:32:25.896Z,101778.70
2019-04-30T01:33:28.467Z,101775.90
2019-04-30T01:34:30.675Z,101779.42
2019-04-30T01:35:32.801Z,101775.55
2019-04-30T01:36:34.553Z,101777.59
2019-04-30T01:37:35.939Z,101777.44
2019-04-30T01:38:40.089Z,101776.45
2019-04-30T01:39:40.728Z,101773.92
2019-04-30T01:40:47.419Z,101774.75
2019-04-30T01:41:48.635Z,101779.14
2019-04-30T01:42:51.878Z,101777.80
2019-04-30T01:43:53.599Z,101774.75
2019-04-30T01:44:54.976Z,101780.13
2019-04-30T01:45:56.388Z,101779.77
2019-04-30T01:46:58.864Z,101775.39
2019-04-30T01:48:08.430Z,101776.25
2019-04-30T01:49:03.781Z,101779.42
2019-04-30T01:50:05.594Z,101778.08
2019-04-30T01:51:08.853Z,101784.44
2019-04-30T01:52:10.320Z,101785.78
2019-04-30T01:53:13.366Z,101783.09
2019-04-30T01:54:20.858Z,101781.75
2019-04-30T01:55:20.076Z,101783.96
2019-04-30T01:56:29.171Z,101785.30
2019-04-30T01:57:32.452Z,101775.55
2019-04-30T01:58:52.462Z,101778.08
2019-04-30T02:00:14.090Z,101779.22
2019-04-30T02:01:20.262Z,101777.72
2019-04-30T02:02:23.788Z,101780.05
2019-04-30T02:03:25.306Z,101776.30
2019-04-30T02:04:26.710Z,101776.58
2019-04-30T02:05:28.770Z,101779.91
2019-04-30T02:06:30.223Z,101781.88
2019-04-30T02:07:32.618Z,101778.20
2019-04-30T02:08:34.003Z,101775.17
2019-04-30T02:09:35.398Z,101776.52
2019-04-30T02:10:36.802Z,101772.96
2019-04-30T02:11:38.848Z,101775.17
2019-04-30T02:12:42.941Z,101778.20
2019-04-30T02:13:44.348Z,101773.82
2019-04-30T02:14:45.757Z,101773.82
2019-04-30T02:15:49.092Z,101772.84
2019-04-30T02:16:50.585Z,101776.36
2019-04-30T02:17:51.989Z,101770.98
2019-04-30T02:18:53.364Z,101771.49
2019-04-30T02:19:56.891Z,101773.19
2019-04-30T02:20:59.502Z,101778.92
2019-04-30T02:22:01.119Z,101776.36
2019-04-30T02:23:02.528Z,101772.20
2019-04-30T02:24:04.052Z,101781.09
2019-04-30T02:25:06.363Z,101782.80
2019-04-30T02:26:08.651Z,101782.44
2019-04-30T02:27:10.175Z,101778.28
2019-04-30T02:28:11.691Z,101781.33
2019-04-30T02:29:13.051Z,101781.33
2019-04-30T02:30:14.453Z,101776.30
2019-04-30T02:31:15.878Z,101780.69
2019-04-30T02:32:20.529Z,101777.14
2019-04-30T02:33:20.939Z,101775.31
2019-04-30T02:34:44.388Z,101776.14
2019-04-30T02:35:49.975Z,101777.02
2019-04-30T02:36:52.959Z,101776.25
2019-04-30T02:38:11.626Z,101777.37
2019-04-30T02:39:13.015Z,101778.36
2019-04-30T02:40:14.665Z,101783.25
2019-04-30T02:41:19.384Z,101778.00
2019-04-30T02:42:21.265Z,101785.71
2019-04-30T02:43:23.846Z,101785.83
2019-04-30T02:44:25.846Z,101784.48
2019-04-30T02:45:29.964Z,101786.34
2019-04-30T02:46:32.499Z,101789.86
2019-04-30T02:47:34.744Z,101788.04
2019-04-30T02:48:39.677Z,101788.04
2019-04-30T02:49:42.478Z,101791.72
2019-04-30T02:50:45.285Z,101795.59
2019-04-30T02:51:49.906Z,101794.25
2019-04-30T02:52:51.953Z,101797.45
2019-04-30T02:54:23.843Z,101797.09
2019-04-30T02:55:42.809Z,101801.48
2019-04-30T02:56:46.094Z,101804.88
2019-04-30T02:57:49.722Z,101803.18
2019-04-30T02:58:50.966Z,101804.45
2019-04-30T03:00:09.669Z,101803.50
2019-04-30T03:01:10.639Z,101799.98
2019-04-30T03:02:12.053Z,101803.86
2019-04-30T03:03:14.072Z,101809.87
2019-04-30T03:04:15.566Z,101812.70
2019-04-30T03:05:19.555Z,101810.02
2019-04-30T03:06:23.595Z,101812.36
2019-04-30T03:07:23.709Z,101820.77
2019-04-30T03:08:25.109Z,101820.26
2019-04-30T03:09:26.506Z,101820.14
2019-04-30T03:10:30.206Z,101823.81
2019-04-30T03:11:31.394Z,101824.16
2019-04-30T03:12:33.732Z,101823.18
2019-04-30T03:13:37.869Z,101824.52
2019-04-30T03:14:40.035Z,101823.53
2019-04-30T03:15:41.529Z,101820.34
2019-04-30T03:16:52.533Z,101826.22
2019-04-30T03:17:52.750Z,101829.27
2019-04-30T03:19:12.446Z,101833.66
2019-04-30T03:20:31.781Z,101828.27
2019-04-30T03:21:40.351Z,101832.03
2019-04-30T03:22:41.083Z,101838.04
2019-04-30T03:23:43.501Z,101831.16
2019-04-30T03:24:44.912Z,101834.99
2019-04-30T03:25:46.310Z,101832.30
2019-04-30T03:26:50.023Z,101827.92
2019-04-30T03:27:51.524Z,101830.61
2019-04-30T03:28:52.899Z,101829.27
2019-04-30T03:29:54.317Z,101833.14
2019-04-30T03:30:57.977Z,101831.31
2019-04-30T03:32:02.702Z,101831.16
2019-04-30T03:33:03.239Z,101833.22
2019-04-30T03:34:04.997Z,101834.08
2019-04-30T03:35:06.623Z,101833.09
2019-04-30T03:36:12.548Z,101835.15
2019-04-30T03:37:11.805Z,101830.77
2019-04-30T03:38:13.213Z,101835.03
2019-04-30T03:39:14.727Z,101835.86
2019-04-30T03:40:16.161Z,101828.78
2019-04-30T03:41:19.834Z,101831.83
2019-04-30T03:42:20.954Z,101829.65
2019-04-30T03:43:22.336Z,101830.00
2019-04-30T03:44:25.890Z,101827.44
2019-04-30T03:45:30.031Z,101830.48
2019-04-30T03:46:30.546Z,101829.14
2019-04-30T03:47:31.920Z,101825.11
2019-04-30T03:48:33.329Z,101829.49
2019-04-30T03:49:34.842Z,101835.73
2019-04-30T03:50:52.474Z,101838.91
2019-04-30T03:51:40.631Z,101836.21
2019-04-30T03:52:42.027Z,101839.77
2019-04-30T03:53:43.400Z,101838.55
2019-04-30T03:54:44.796Z,101834.16
2019-04-30T03:55:46.235Z,101833.68
2019-04-30T03:56:50.243Z,101843.92
2019-04-30T03:57:51.975Z,101842.22
2019-04-30T03:58:53.588Z,101834.16
2019-04-30T03:59:55.003Z,101836.48
2019-04-30T04:01:15.173Z,101835.66
2019-04-30T04:02:27.304Z,101837.00
2019-04-30T04:03:29.706Z,101830.64
2019-04-30T04:04:52.091Z,101843.21
2019-04-30T04:05:53.516Z,101834.44
2019-04-30T04:06:56.836Z,101841.98
2019-04-30T04:08:02.841Z,101840.45
2019-04-30T04:09:25.609Z,101845.11
2019-04-30T04:10:45.790Z,101837.68
2019-04-30T04:11:50.563Z,101838.75
2019-04-30T04:12:51.085Z,101834.72
2019-04-30T04:13:52.474Z,101841.20
2019-04-30T04:14:53.859Z,101842.34
2019-04-30T04:15:55.257Z,101839.78
2019-04-30T04:16:56.655Z,101834.77
2019-04-30T04:18:00.342Z,101842.83
2019-04-30T04:19:02.803Z,101838.31
2019-04-30T04:20:04.740Z,101841.36
2019-04-30T04:21:11.684Z,101843.53
2019-04-30T04:22:09.979Z,101840.37
2019-04-30T04:23:12.760Z,101839.86
2019-04-30T04:24:14.154Z,101838.04
2019-04-30T04:25:15.546Z,101842.78
2019-04-30T04:26:16.931Z,101835.19
2019-04-30T04:27:19.355Z,101835.55
2019-04-30T04:28:21.043Z,101833.73
2019-04-30T04:29:22.452Z,101833.09
2019-04-30T04:30:23.836Z,101839.81
2019-04-30T04:31:25.234Z,101838.47
2019-04-30T04:32:26.653Z,101839.18
2019-04-30T04:33:29.646Z,101835.50
2019-04-30T04:34:31.329Z,101839.89
2019-04-30T04:35:32.884Z,101833.53
2019-04-30T04:36:34.267Z,101837.28
2019-04-30T04:37:36.180Z,101834.59
2019-04-30T04:38:40.095Z,101840.32
2019-04-30T04:39:42.109Z,101838.14
2019-04-30T04:40:43.790Z,101837.28
2019-04-30T04:41:45.196Z,101841.82
2019-04-30T04:42:49.056Z,101835.58
2019-04-30T04:43:50.595Z,101833.76
2019-04-30T04:44:52.204Z,101835.94
2019-04-30T04:45:53.594Z,101830.56
2019-04-30T04:46:55.109Z,101834.95
2019-04-30T04:47:56.533Z,101843.16
2019-04-30T04:48:59.640Z,101831.91
2019-04-30T04:50:01.321Z,101835.94
2019-04-30T04:51:02.807Z,101836.80
2019-04-30T04:52:04.193Z,101837.79
2019-04-30T04:53:07.943Z,101837.28
2019-04-30T04:54:10.387Z,101836.56
2019-04-30T04:55:12.592Z,101840.95
2019-04-30T04:56:13.968Z,101845.98
2019-04-30T04:57:19.587Z,101847.83
2019-04-30T04:58:21.630Z,101851.70
2019-04-30T04:59:22.059Z,101851.98
2019-04-30T05:00:23.560Z,101856.87
2019-04-30T05:01:24.937Z,101855.66
2019-04-30T05:02:34.072Z,101855.30
2019-04-30T05:03:39.719Z,101850.44
2019-04-30T05:04:40.658Z,101852.97
2019-04-30T05:05:42.121Z,101857.36
2019-04-30T05:06:43.505Z,101858.70
2019-04-30T05:07:44.897Z,101854.55
2019-04-30T05:08:46.912Z,101850.36
2019-04-30T05:09:48.967Z,101854.11
2019-04-30T05:10:50.486Z,101856.52
2019-04-30T05:11:51.888Z,101851.22
2019-04-30T05:12:53.283Z,101854.97
2019-04-30T05:13:54.688Z,101859.75
2019-04-30T05:14:56.065Z,101857.17
2019-04-30T05:15:59.428Z,101850.52
2019-04-30T05:17:00.856Z,101861.34
2019-04-30T05:18:02.253Z,101859.44
2019-04-30T05:19:03.668Z,101862.84
2019-04-30T05:20:06.854Z,101851.52
2019-04-30T05:21:08.810Z,101849.41
2019-04-30T05:22:10.337Z,101848.48
2019-04-30T05:23:11.737Z,101854.77
2019-04-30T05:24:13.172Z,101853.71
2019-04-30T05:25:14.544Z,101855.98
2019-04-30T05:26:16.043Z,101858.11
2019-04-30T05:27:17.416Z,101855.83
2019-04-30T05:28:19.043Z,101855.77
2019-04-30T05:29:20.520Z,101853.62
2019-04-30T05:30:22.004Z,101857.43
2019-04-30T05:31:23.384Z,101851.31
2019-04-30T05:32:24.796Z,101847.20
2019-04-30T05:33:26.202Z,101853.00
2019-04-30T05:34:28.798Z,101850.36
2019-04-30T05:35:31.097Z,101844.52
2019-04-30T05:36:32.766Z,101850.83
2019-04-30T05:37:34.146Z,101849.05
2019-04-30T05:38:35.551Z,101845.55
2019-04-30T05:39:39.059Z,101851.99
2019-04-30T05:40:42.500Z,101856.09
2019-04-30T05:41:43.904Z,101853.45
2019-04-30T05:42:45.320Z,101855.36
2019-04-30T05:43:48.776Z,101848.84
2019-04-30T05:44:50.171Z,101854.77
2019-04-30T05:45:51.540Z,101851.30
2019-04-30T05:46:52.940Z,101854.05
2019-04-30T05:47:54.325Z,101856.44
2019-04-30T05:48:55.731Z,101836.58
2019-04-30T05:49:58.498Z,101846.41
2019-04-30T05:51:00.037Z,101841.23
2019-04-30T05:52:01.440Z,101841.93
2019-04-30T05:53:02.851Z,101841.66
2019-04-30T05:54:04.264Z,101838.66
2019-04-30T05:55:05.759Z,101838.02
2019-04-30T05:56:09.242Z,101837.36
2019-04-30T05:57:10.548Z,101838.06
2019-04-30T05:58:11.961Z,101837.75
2019-04-30T05:59:13.468Z,101836.23
2019-04-30T06:00:15.097Z,101832.55
2019-04-30T06:01:16.468Z,101837.32
2019-04-30T06:02:19.408Z,101841.20
2019-04-30T06:03:29.716Z,101837.50
2019-04-30T06:04:24.254Z,101843.10
2019-04-30T06:05:25.664Z,101838.06
2019-04-30T06:06:28.889Z,101840.59
2019-04-30T06:07:30.592Z,101839.75
2019-04-30T06:08:39.946Z,101840.10
2019-04-30T06:09:46.027Z,101840.59
2019-04-30T06:10:59.703Z,101834.06
2019-04-30T06:12:05.930Z,101836.41
2019-04-30T06:13:28.700Z,101833.54
2019-04-30T06:14:48.900Z,101836.41
2019-04-30T06:15:52.630Z,101834.41
2019-04-30T06:17:09.794Z,101831.02
2019-04-30T06:18:13.893Z,101829.80
2019-04-30T06:19:14.464Z,101835.36
2019-04-30T06:20:18.609Z,101835.02
2019-04-30T06:21:21.626Z,101835.16
2019-04-30T06:22:23.528Z,101834.32
2019-04-30T06:23:25.011Z,101832.97
2019-04-30T06:24:28.174Z,101828.92
2019-04-30T06:25:37.188Z,101828.92
2019-04-30T06:26:33.478Z,101831.11
2019-04-30T06:27:34.976Z,101827.41
2019-04-30T06:28:36.448Z,101824.72
2019-04-30T06:29:39.077Z,101830.11
2019-04-30T06:30:40.731Z,101832.31
2019-04-30T06:31:43.313Z,101832.80
2019-04-30T06:32:44.950Z,101834.16
2019-04-30T06:33:46.323Z,101835.02
2019-04-30T06:34:49.817Z,101831.97
2019-04-30T06:35:51.699Z,101826.92
2019-04-30T06:36:54.188Z,101827.27
2019-04-30T06:37:58.933Z,101827.76
2019-04-30T06:39:00.485Z,101830.31
2019-04-30T06:40:01.959Z,101828.45
2019-04-30T06:41:03.349Z,101826.63
2019-04-30T06:42:08.827Z,101831.50
2019-04-30T06:43:09.140Z,101831.84
2019-04-30T06:44:11.039Z,101832.70
2019-04-30T06:45:12.633Z,101828.66
2019-04-30T06:46:14.119Z,101832.70
2019-04-30T06:47:16.018Z,101828.50
2019-04-30T06:48:19.894Z,101825.80
2019-04-30T06:49:22.322Z,101824.11
2019-04-30T06:50:23.720Z,101833.75
2019-04-30T06:51:25.106Z,101831.19
2019-04-30T06:52:26.597Z,101830.19
2019-04-30T06:53:29.261Z,101828.02
2019-04-30T06:54:30.828Z,101830.54
2019-04-30T06:55:32.215Z,101822.97
2019-04-30T06:56:34.605Z,101816.22
2019-04-30T06:57:35.986Z,101819.27
2019-04-30T06:58:38.869Z,101816.58
2019-04-30T06:59:40.859Z,101822.80
2019-04-30T07:00:42.262Z,101820.62
2019-04-30T07:01:43.639Z,101820.45
2019-04-30T07:02:45.036Z,101812.36
2019-04-30T07:03:48.609Z,101814.57
2019-04-30T07:04:49.818Z,101809.66
2019-04-30T07:05:51.195Z,101810.53
2019-04-30T07:06:52.580Z,101813.36
2019-04-30T07:08:12.356Z,101812.02
2019-04-30T07:09:21.664Z,101813.22
2019-04-30T07:10:24.944Z,101808.52
2019-04-30T07:11:29.298Z,101802.78
2019-04-30T07:12:34.112Z,101798.19
2019-04-30T07:13:36.990Z,101802.23
2019-04-30T07:14:41.743Z,101810.97
2019-04-30T07:15:42.775Z,101802.53
2019-04-30T07:16:44.157Z,101796.80
2019-04-30T07:17:45.549Z,101800.84
2019-04-30T07:18:48.822Z,101800.00
2019-04-30T07:19:56.415Z,101804.05
2019-04-30T07:20:53.616Z,101800.14
2019-04-30T07:21:55.120Z,101806.40
2019-04-30T07:23:02.169Z,101798.31
2019-04-30T07:23:59.802Z,101798.97
2019-04-30T07:25:01.176Z,101801.66
2019-04-30T07:26:03.700Z,101800.45
2019-04-30T07:27:05.156Z,101798.27
2019-04-30T07:28:06.662Z,101807.84
2019-04-30T07:29:09.644Z,101811.89
2019-04-30T07:30:11.683Z,101801.62
2019-04-30T07:31:14.717Z,101804.80
2019-04-30T07:32:16.480Z,101800.41
2019-04-30T07:33:20.799Z,101803.45
2019-04-30T07:34:22.293Z,101796.53
2019-04-30T07:35:23.668Z,101802.75
2019-04-30T07:36:42.433Z,101796.16
2019-04-30T07:37:29.259Z,101799.50
2019-04-30T07:38:35.746Z,101792.41
2019-04-30T07:39:34.213Z,101796.11
2019-04-30T07:40:35.595Z,101790.02
2019-04-30T07:41:36.985Z,101792.89
2019-04-30T07:42:44.632Z,101795.58
2019-04-30T07:43:41.764Z,101793.54
2019-04-30T07:44:46.412Z,101787.28
2019-04-30T07:45:49.581Z,101788.28
2019-04-30T07:46:51.190Z,101790.50
2019-04-30T07:47:52.573Z,101785.59
2019-04-30T07:48:53.964Z,101783.06
2019-04-30T07:49:56.021Z,101787.94
2019-04-30T07:50:59.250Z,101787.94
2019-04-30T07:52:01.935Z,101787.94
2019-04-30T07:53:06.621Z,101789.63
2019-04-30T07:54:09.202Z,101788.94
2019-04-30T07:55:10.751Z,101793.67
2019-04-30T07:56:24.157Z,101790.98
2019-04-30T07:57:15.441Z,101789.63
2019-04-30T07:58:20.209Z,101789.84
2019-04-30T07:59:20.632Z,101783.11
2019-04-30T08:00:22.083Z,101783.80
2019-04-30T08:01:23.500Z,101780.11
2019-04-30T08:02:26.313Z,101780.94
2019-04-30T08:03:42.087Z,101779.94
2019-04-30T08:04:50.914Z,101775.76
2019-04-30T08:05:53.847Z,101770.55
2019-04-30T08:06:59.106Z,101775.11
2019-04-30T08:08:16.743Z,101770.20
2019-04-30T08:09:10.129Z,101770.72
2019-04-30T08:10:11.213Z,101774.24
2019-04-30T08:11:23.035Z,101773.23
2019-04-30T08:12:22.031Z,101774.24
2019-04-30T08:13:21.859Z,101770.55
2019-04-30T08:14:24.575Z,101769.20
2019-04-30T08:15:26.270Z,101765.15
2019-04-30T08:16:29.482Z,101764.67
2019-04-30T08:17:30.964Z,101771.89
2019-04-30T08:18:32.457Z,101763.80
2019-04-30T08:19:33.836Z,101763.80
2019-04-30T08:20:35.334Z,101761.97
2019-04-30T08:21:38.755Z,101761.11
2019-04-30T08:22:41.114Z,101765.67
2019-04-30T08:23:42.706Z,101764.80
2019-04-30T08:24:45.104Z,101769.37
2019-04-30T08:25:46.518Z,101759.06
2019-04-30T08:26:49.371Z,101765.81
2019-04-30T08:27:50.936Z,101765.81
2019-04-30T08:28:52.439Z,101761.41
2019-04-30T08:29:53.819Z,101764.63
2019-04-30T08:30:55.213Z,101757.89
2019-04-30T08:31:56.633Z,101763.42
2019-04-30T08:32:59.596Z,101757.89
2019-04-30T08:34:01.266Z,101756.54
2019-04-30T08:35:05.085Z,101756.19
2019-04-30T08:36:06.593Z,101759.89
2019-04-30T08:37:16.974Z,101759.72
2019-04-30T08:38:11.427Z,101761.06
2019-04-30T08:39:13.924Z,101756.19
2019-04-30T08:40:15.380Z,101757.02
2019-04-30T08:41:16.755Z,101755.84
2019-04-30T08:42:29.029Z,101755.33
2019-04-30T08:43:21.470Z,101753.98
2019-04-30T08:44:22.860Z,101750.94
2019-04-30T08:45:25.248Z,101754.98
2019-04-30T08:46:28.850Z,101757.20
2019-04-30T08:47:30.367Z,101753.64
2019-04-30T08:48:45.238Z,101755.67
2019-04-30T08:49:35.340Z,101753.16
2019-04-30T08:50:39.298Z,101755.33
2019-04-30T08:51:41.261Z,101754.98
2019-04-30T08:52:43.172Z,101750.94
2019-04-30T08:53:44.589Z,101750.94
2019-04-30T08:54:45.972Z,101748.41
2019-04-30T08:55:49.151Z,101752.80
2019-04-30T08:56:50.658Z,101752.28
2019-04-30T08:57:52.091Z,101747.41
2019-04-30T08:58:54.937Z,101759.20
2019-04-30T08:59:58.571Z,101757.68
2019-04-30T09:01:00.039Z,101753.64
2019-04-30T09:02:12.898Z,101756.33
2019-04-30T09:03:04.856Z,101754.16
2019-04-30T09:04:07.670Z,101757.33
2019-04-30T09:05:30.619Z,101761.38
2019-04-30T09:06:32.276Z,101763.72
2019-04-30T09:07:33.719Z,101756.33
2019-04-30T09:08:35.342Z,101755.80
2019-04-30T09:09:38.888Z,101755.94
2019-04-30T09:10:41.893Z,101758.94
2019-04-30T09:11:52.920Z,101756.11
2019-04-30T09:12:46.673Z,101752.20
2019-04-30T09:13:48.807Z,101756.59
2019-04-30T09:14:50.284Z,101755.25
2019-04-30T09:15:51.669Z,101757.94
2019-04-30T09:16:53.097Z,101757.59
2019-04-30T09:18:03.212Z,101763.69
2019-04-30T09:18:59.485Z,101756.94
2019-04-30T09:20:01.064Z,101759.16
2019-04-30T09:21:06.203Z,101761.68
2019-04-30T09:22:14.360Z,101765.72
2019-04-30T09:23:11.254Z,101762.89
2019-04-30T09:24:12.889Z,101756.50
2019-04-30T09:25:14.274Z,101758.68
2019-04-30T09:26:15.660Z,101761.72
2019-04-30T09:27:17.100Z,101760.89
2019-04-30T09:28:19.869Z,101753.64
2019-04-30T09:29:21.470Z,101751.28
2019-04-30T09:30:22.962Z,101748.24
2019-04-30T09:31:24.349Z,101751.63
2019-04-30T09:32:25.829Z,101746.59
2019-04-30T09:33:29.301Z,101748.28
2019-04-30T09:34:30.647Z,101748.28
2019-04-30T09:35:32.301Z,101747.28
2019-04-30T09:36:33.820Z,101749.98
2019-04-30T09:37:35.197Z,101745.59
2019-04-30T09:38:36.601Z,101748.63
2019-04-30T09:39:39.324Z,101743.75
2019-04-30T09:40:41.824Z,101747.28
2019-04-30T09:41:43.336Z,101743.23
2019-04-30T09:42:44.759Z,101739.71
2019-04-30T09:43:46.169Z,101745.11
2019-04-30T09:44:49.236Z,101746.45
2019-04-30T09:45:51.007Z,101745.94
2019-04-30T09:46:52.406Z,101745.94
2019-04-30T09:47:53.877Z,101737.50
2019-04-30T09:48:55.273Z,101742.55
2019-04-30T09:49:56.890Z,101739.50
2019-04-30T09:51:01.074Z,101743.20
2019-04-30T09:52:03.363Z,101746.41
2019-04-30T09:53:05.896Z,101744.72
2019-04-30T09:54:11.864Z,101747.06
2019-04-30T09:55:10.883Z,101746.72
2019-04-30T09:56:12.305Z,101744.51
2019-04-30T09:57:13.805Z,101750.55
2019-04-30T09:58:18.249Z,101750.90
2019-04-30T09:59:19.007Z,101750.55
2019-04-30T10:00:21.296Z,101750.55
2019-04-30T10:01:22.670Z,101749.20
2019-04-30T10:02:25.170Z,101749.86
2019-04-30T10:03:26.784Z,101748.16
2019-04-30T10:04:30.298Z,101754.06
2019-04-30T10:05:31.940Z,101748.81
2019-04-30T10:06:39.526Z,101751.52
2019-04-30T10:07:36.754Z,101751.52
2019-04-30T10:08:47.954Z,101756.55
2019-04-30T10:09:41.454Z,101750.30
2019-04-30T10:10:48.648Z,101748.61
2019-04-30T10:11:52.040Z,101745.91
2019-04-30T10:12:53.448Z,101743.08
2019-04-30T10:13:54.822Z,101745.39
2019-04-30T10:14:56.215Z,101739.66
2019-04-30T10:16:02.161Z,101737.96
2019-04-30T10:17:17.559Z,101742.00
2019-04-30T10:18:18.959Z,101741.52
2019-04-30T10:19:21.347Z,101741.34
2019-04-30T10:20:26.332Z,101737.48
2019-04-30T10:21:29.002Z,101740.17
2019-04-30T10:22:30.499Z,101729.53
2019-04-30T10:23:31.902Z,101736.13
2019-04-30T10:24:33.969Z,101737.96
2019-04-30T10:25:35.691Z,101735.61
2019-04-30T10:26:37.112Z,101731.44
2019-04-30T10:27:38.904Z,101733.64
2019-04-30T10:28:42.901Z,101729.95
2019-04-30T10:29:44.379Z,101724.56
2019-04-30T10:30:45.876Z,101731.64
2019-04-30T10:31:48.998Z,101730.64
2019-04-30T10:32:50.498Z,101730.64
2019-04-30T10:33:51.897Z,101730.64
2019-04-30T10:34:53.268Z,101735.03
2019-04-30T10:35:54.668Z,101735.03
2019-04-30T10:36:56.092Z,101730.86
2019-04-30T10:37:59.211Z,101730.34
2019-04-30T10:39:00.880Z,101727.98
2019-04-30T10:40:03.198Z,101727.50
2019-04-30T10:41:04.671Z,101731.03
2019-04-30T10:42:06.248Z,101730.69
2019-04-30T10:43:08.905Z,101726.98
2019-04-30T10:44:10.559Z,101723.30
2019-04-30T10:45:12.590Z,101726.50
2019-04-30T10:46:13.984Z,101727.69
2019-04-30T10:47:15.515Z,101722.81
2019-04-30T10:48:16.895Z,101729.03
2019-04-30T10:49:19.484Z,101724.16
2019-04-30T10:50:21.897Z,101726.34
2019-04-30T10:51:23.299Z,101721.81
2019-04-30T10:52:24.709Z,101723.98
2019-04-30T10:53:26.229Z,101720.94
2019-04-30T10:54:28.942Z,101721.29
2019-04-30T10:55:31.109Z,101718.59
2019-04-30T10:56:32.774Z,101719.94
2019-04-30T10:57:35.178Z,101718.94
2019-04-30T10:58:36.549Z,101715.90
2019-04-30T10:59:37.955Z,101717.59
2019-04-30T11:00:40.872Z,101720.29
2019-04-30T11:01:42.281Z,101718.59
2019-04-30T11:02:43.711Z,101713.55
2019-04-30T11:03:45.082Z,101714.55
2019-04-30T11:04:46.584Z,101711.86
2019-04-30T11:05:48.815Z,101707.47
2019-04-30T11:06:50.366Z,101708.81
2019-04-30T11:07:51.895Z,101707.12
2019-04-30T11:08:53.402Z,101701.73
2019-04-30T11:09:54.824Z,101697.00
2019-04-30T11:10:56.323Z,101704.08
2019-04-30T11:11:59.418Z,101700.20
2019-04-30T11:13:00.905Z,101701.69
2019-04-30T11:14:02.293Z,101699.34
2019-04-30T11:15:05.575Z,101692.26
2019-04-30T11:16:14.753Z,101692.13
2019-04-30T11:17:10.539Z,101697.86
2019-04-30T11:18:12.733Z,101691.95
2019-04-30T11:19:14.426Z,101691.60
2019-04-30T11:20:16.662Z,101696.52
2019-04-30T11:21:19.730Z,101696.52
2019-04-30T11:22:21.713Z,101690.25
2019-04-30T11:23:23.505Z,101693.30
2019-04-30T11:24:35.929Z,101682.52
2019-04-30T11:25:30.815Z,101691.60
2019-04-30T11:26:32.622Z,101690.47
2019-04-30T11:27:35.926Z,101680.82
2019-04-30T11:28:38.064Z,101676.30
2019-04-30T11:29:39.901Z,101678.13
2019-04-30T11:30:43.745Z,101677.98
2019-04-30T11:31:59.267Z,101678.13
2019-04-30T11:33:01.064Z,101673.60
2019-04-30T11:34:03.858Z,101676.12
2019-04-30T11:35:05.542Z,101673.43
2019-04-30T11:36:06.932Z,101677.47
2019-04-30T11:37:08.411Z,101675.30
2019-04-30T11:38:09.817Z,101675.13
2019-04-30T11:39:13.138Z,101674.98
2019-04-30T11:40:16.500Z,101669.08
2019-04-30T11:41:29.786Z,101675.16
2019-04-30T11:42:21.276Z,101675.50
2019-04-30T11:43:22.655Z,101666.94
2019-04-30T11:44:30.858Z,101668.97
2019-04-30T11:45:52.950Z,101664.06
2019-04-30T11:47:00.971Z,101662.44
2019-04-30T11:48:02.444Z,101662.47
2019-04-30T11:49:04.040Z,101659.77
2019-04-30T11:50:08.441Z,101662.47
2019-04-30T11:51:09.848Z,101662.12
2019-04-30T11:52:11.499Z,101661.13
2019-04-30T11:53:24.713Z,101661.47
2019-04-30T11:54:16.220Z,101657.91
2019-04-30T11:55:19.300Z,101658.59
2019-04-30T11:56:20.795Z,101659.46
2019-04-30T11:57:22.194Z,101654.41
2019-04-30T11:58:23.569Z,101659.28
2019-04-30T11:59:24.975Z,101661.98